Khalkis, Greece
Current Conditions -  °F | °C
As of 9:20 AM on Monday 20 Oct 2014 (Local Time) from LGTG Reporting Station
Scattered Clouds Scattered Clouds  
Wind Chill: 57°   Ceiling: Unl
Heat Index: 57°   Visibility: 6mi
Dew Point: 48°   Wind: 5mph
Humidity: 72%   Direction: 300°WNW
Pressure: 30.24"   Gusts: NA
Location:  38.46°N, 23.6°E
Report Text: LGTG 200620Z 30004KT 9999 SCT025 14/09 Q1024 BLU
Loading
Personal Weather Stations






























Interactive Weather Map
Tropical Storm Tracking
New forecast layout! Learn more

10-Day Weather Forecast

Advertisements
Track Severe Weather on mobile